Time;durP1;ratioP1;P1;durP2;ratioP2;P2;SDS_P1;SDS_P2;PMS_P1;PMS_P2;Temp;Humidity;BMP_temperature;BMP_pressure;BME280_temperature;BME280_humidity;BME280_pressure;Samples;Min_cycle;Max_cycle;Signal;HPM_P1;HPM_P2
2021/12/03 00:00:44;;;;;;;11.05;3.38;;;4.10;99.90;;;;;;5018282;28;20054;-92
2021/12/03 00:03:12;;;;;;;13.20;3.42;;;3.40;99.90;;;;;;5001375;28;20152;-91
2021/12/03 00:05:40;;;;;;;9.23;2.80;;;3.30;99.90;;;;;;5001601;28;20061;-90
2021/12/03 00:08:07;;;;;;;11.25;2.70;;;3.40;99.90;;;;;;5002048;28;20141;-92
2021/12/03 00:10:56;;;;;;;12.00;2.58;;;3.80;99.90;;;;;;5001014;28;20054;-92
2021/12/03 00:13:25;;;;;;;8.23;2.70;;;3.50;99.90;;;;;;4999953;28;20050;-91
2021/12/03 00:15:53;;;;;;;;;;;3.70;99.90;;;;;;5001870;28;20033;-92
2021/12/03 00:18:21;;;;;;;7.97;2.30;;;4.00;99.90;;;;;;5003484;28;20000;-93
2021/12/03 00:20:49;;;;;;;8.50;2.50;;;3.70;99.90;;;;;;5002082;28;20093;-92
2021/12/03 00:23:17;;;;;;;6.68;2.70;;;3.70;99.90;;;;;;5000688;28;20055;-91
2021/12/03 00:25:45;;;;;;;10.57;2.28;;;4.00;99.90;;;;;;4999784;28;20046;-91
2021/12/03 00:28:12;;;;;;;6.68;2.50;;;3.80;99.90;;;;;;4999696;28;20058;-91
2021/12/03 00:30:42;;;;;;;3.75;1.90;;;4.40;99.90;;;;;;4999804;28;20057;-91
2021/12/03 00:33:12;;;;;;;8.23;2.65;;;3.70;99.90;;;;;;4999935;28;20120;-92
2021/12/03 00:35:49;;;;;;;7.40;2.10;;;3.80;99.90;;;;;;5000381;28;20096;-90
2021/12/03 00:38:16;;;;;;;9.02;2.47;;;3.50;99.90;;;;;;4999891;28;20057;-91
2021/12/03 00:40:44;;;;;;;9.55;2.20;;;3.70;99.90;;;;;;4999201;28;20112;-92
2021/12/03 00:43:12;;;;;;;6.90;2.75;;;3.90;99.90;;;;;;4999604;28;20382;-92
2021/12/03 00:45:39;;;;;;;7.43;2.53;;;3.50;99.90;;;;;;4999502;28;20050;-92
2021/12/03 00:48:10;;;;;;;4.10;2.20;;;3.60;99.90;;;;;;5000301;28;20057;-92
2021/12/03 00:50:38;;;;;;;5.55;2.28;;;3.70;99.90;;;;;;4999828;28;20092;-91
2021/12/03 00:53:06;;;;;;;7.63;3.05;;;3.60;99.90;;;;;;5014831;28;20096;-91
2021/12/03 00:55:34;;;;;;;10.43;3.50;;;3.50;99.90;;;;;;5020068;28;20076;-92
2021/12/03 00:58:02;;;;;;;8.37;2.97;;;3.50;99.90;;;;;;5019616;28;20046;-92
2021/12/03 01:00:31;;;;;;;9.45;2.80;;;3.40;99.90;;;;;;5013960;28;20061;-91
2021/12/03 01:03:01;;;;;;;6.97;2.65;;;3.60;99.90;;;;;;4999925;28;20082;-91
2021/12/03 01:05:32;;;;;;;10.13;2.50;;;3.50;99.90;;;;;;4999963;28;20055;-92
2021/12/03 01:08:09;;;;;;;5.95;2.15;;;3.50;99.90;;;;;;4999945;28;20417;-93
2021/12/03 01:10:36;;;;;;;5.72;2.28;;;3.50;99.90;;;;;;5000015;28;20050;-93
2021/12/03 01:13:27;;;;;;;6.38;2.33;;;3.50;99.90;;;;;;4999021;28;20054;-92
2021/12/03 01:15:54;;;;;;;8.57;2.15;;;3.10;99.90;;;;;;5047874;22;20499;-92
2021/12/03 01:18:35;;;;;;;8.18;2.25;;;3.80;99.90;;;;;;5058561;28;20048;-92
2021/12/03 01:21:06;;;;;;;5.93;2.20;;;3.60;99.90;;;;;;5057714;28;20057;-93
2021/12/03 01:23:55;;;;;;;5.00;2.08;;;3.90;99.90;;;;;;5063097;28;20044;-92
2021/12/03 01:26:24;;;;;;;7.80;2.35;;;3.90;99.90;;;;;;5077964;28;20045;-93
2021/12/03 01:28:52;;;;;;;4.63;1.83;;;4.20;99.90;;;;;;5078416;28;20446;-92
2021/12/03 01:31:20;;;;;;;5.63;1.70;;;3.90;99.90;;;;;;5077724;28;20045;-92
2021/12/03 01:33:48;;;;;;;6.85;2.03;;;3.50;99.90;;;;;;5077878;28;20102;-93
2021/12/03 01:36:17;;;;;;;5.28;1.42;;;3.60;99.90;;;;;;5077487;28;20045;-93
2021/12/03 01:38:45;;;;;;;2.25;0.73;;;3.60;99.90;;;;;;5077615;28;20048;-92
2021/12/03 01:41:13;;;;;;;6.05;1.40;;;3.80;99.90;;;;;;5064788;28;20418;-92
2021/12/03 01:43:51;;;;;;;5.68;1.35;;;3.30;99.90;;;;;;5057603;28;20119;-93
2021/12/03 01:46:20;;;;;;;2.50;1.02;;;3.70;99.90;;;;;;5058015;28;20045;-92
2021/12/03 01:48:49;;;;;;;4.13;1.45;;;3.90;99.90;;;;;;5058387;28;20048;-92
2021/12/03 01:51:19;;;;;;;4.82;1.58;;;3.60;99.90;;;;;;5073728;28;20048;-93
2021/12/03 01:53:46;;;;;;;3.53;1.30;;;4.00;99.90;;;;;;5057574;28;20135;-92
2021/12/03 01:56:15;;;;;;;5.63;1.50;;;3.60;99.90;;;;;;5057966;28;20049;-93
2021/12/03 01:58:44;;;;;;;2.05;0.85;;;4.00;99.90;;;;;;5058133;28;20079;-92
2021/12/03 02:01:18;;;;;;;4.30;0.90;;;3.70;99.90;;;;;;5057335;28;20052;-92
2021/12/03 02:04:20;;;;;;;5.63;1.40;;;3.60;99.90;;;;;;5057596;28;20049;-93
2021/12/03 02:06:49;;;;;;;2.30;0.90;;;3.90;99.90;;;;;;5058126;28;20067;-92
2021/12/03 02:09:16;;;;;;;2.22;1.00;;;3.80;99.90;;;;;;5055070;28;20041;-92
2021/12/03 02:11:44;;;;;;;3.38;1.13;;;3.60;99.90;;;;;;5038880;28;20049;-92
2021/12/03 02:14:30;;;;;;;2.30;0.80;;;3.90;99.90;;;;;;5056536;28;20114;-92
2021/12/03 02:16:58;;;;;;;4.13;1.05;;;3.80;99.90;;;;;;5047228;28;20053;-94
2021/12/03 02:19:26;;;;;;;3.30;1.15;;;3.80;99.90;;;;;;5057260;28;20052;-92
2021/12/03 02:21:55;;;;;;;1.80;0.82;;;3.80;99.90;;;;;;5057493;28;20045;-92
2021/12/03 02:24:22;;;;;;;2.70;0.70;;;3.80;99.90;;;;;;5057151;28;20056;-92
2021/12/03 02:26:49;;;;;;;1.33;0.70;;;4.10;99.90;;;;;;5057439;28;20084;-93
2021/12/03 02:29:17;;;;;;;1.08;0.45;;;4.10;99.90;;;;;;5056176;28;20045;-92
2021/12/03 02:32:07;;;;;;;0.93;0.60;;;4.00;99.90;;;;;;5056369;28;20049;-92
2021/12/03 02:34:36;;;;;;;0.98;0.60;;;4.50;99.90;;;;;;5057189;28;20601;-93
2021/12/03 02:37:05;;;;;;;3.85;1.45;;;4.30;99.90;;;;;;5057183;28;20049;-92
2021/12/03 02:39:35;;;;;;;1.80;0.90;;;4.30;99.90;;;;;;5057052;28;20060;-92
2021/12/03 02:45:03;;;;;;;1.42;0.80;;;4.10;99.90;;;;;;4995889;28;20046;-91
2021/12/03 02:47:31;;;;;;;2.20;1.00;;;4.40;99.90;;;;;;4997408;28;20046;-92
2021/12/03 02:49:58;;;;;;;8.23;4.00;;;4.10;99.90;;;;;;4998018;28;20053;-92
2021/12/03 02:52:27;;;;;;;3.00;1.10;;;4.10;99.90;;;;;;4997983;28;20545;-92
2021/12/03 02:54:54;;;;;;;7.20;3.55;;;4.20;99.90;;;;;;4997454;28;20073;-92
2021/12/03 02:57:23;;;;;;;1.63;0.95;;;4.50;99.90;;;;;;4997885;28;20046;-92
2021/12/03 02:59:51;;;;;;;1.58;1.05;;;4.40;99.90;;;;;;4997999;28;20077;-92
2021/12/03 03:02:21;;;;;;;4.57;1.40;;;4.60;99.90;;;;;;4998412;28;20057;-91
2021/12/03 03:04:48;;;;;;;2.22;1.15;;;4.30;99.90;;;;;;4997863;28;20057;-92
2021/12/03 03:07:15;;;;;;;1.52;0.93;;;4.50;99.90;;;;;;4997859;28;20057;-91
2021/12/03 03:09:45;;;;;;;1.77;0.85;;;4.50;99.90;;;;;;4997517;28;20053;-91
2021/12/03 03:12:51;;;;;;;3.13;1.45;;;4.30;99.90;;;;;;4997935;28;20046;-91
2021/12/03 03:15:33;;;;;;;4.03;1.55;;;3.40;99.90;;;;;;4997720;28;20050;-92
2021/12/03 03:18:10;;;;;;;4.00;1.40;;;4.30;99.90;;;;;;4979202;28;20078;-91
2021/12/03 03:20:39;;;;;;;1.63;1.02;;;4.20;99.90;;;;;;4987134;28;20054;-93
2021/12/03 03:23:39;;;;;;;7.88;1.65;;;4.30;99.90;;;;;;5001270;28;20058;-93
2021/12/03 03:26:10;;;;;;;2.78;1.55;;;4.30;99.90;;;;;;5000486;28;20046;-91
2021/12/03 03:28:39;;;;;;;4.25;1.80;;;4.20;99.90;;;;;;5000949;28;20050;-92
2021/12/03 03:31:07;;;;;;;3.67;1.92;;;4.20;99.90;;;;;;5001010;28;20093;-92
2021/12/03 03:36:21;;;;;;;2.15;1.70;;;4.50;99.90;;;;;;4997531;28;20113;-92
2021/12/03 03:38:49;;;;;;;2.17;1.23;;;4.30;99.90;;;;;;5000539;28;20164;-92
2021/12/03 03:41:18;;;;;;;1.65;0.85;;;4.20;99.90;;;;;;5001197;28;20050;-92
2021/12/03 03:43:45;;;;;;;3.55;2.17;;;5.30;99.90;;;;;;5000364;28;20061;-92
2021/12/03 03:46:31;;;;;;;3.13;1.52;;;4.10;99.90;;;;;;5001039;28;20051;-92
2021/12/03 03:48:58;;;;;;;2.92;1.38;;;4.60;99.90;;;;;;5000178;28;20471;-92
2021/12/03 03:51:27;;;;;;;2.15;1.42;;;4.10;99.90;;;;;;5000321;28;20504;-92
2021/12/03 03:54:10;;;;;;;1.98;1.33;;;4.10;99.90;;;;;;5000250;28;20054;-92
2021/12/03 03:56:39;;;;;;;4.43;2.15;;;4.10;99.90;;;;;;5000843;28;20054;-91
2021/12/03 03:59:07;;;;;;;2.03;1.40;;;4.10;99.90;;;;;;5000229;28;20046;-92
2021/12/03 04:01:34;;;;;;;2.50;1.48;;;4.10;99.90;;;;;;5000312;28;20062;-92
2021/12/03 04:04:01;;;;;;;2.95;1.90;;;4.30;99.90;;;;;;5000755;28;20085;-91
2021/12/03 04:06:38;;;;;;;6.38;1.83;;;4.20;99.90;;;;;;5000554;28;20141;-91
2021/12/03 04:09:07;;;;;;;4.85;2.00;;;4.50;99.90;;;;;;4999485;28;20052;-92
2021/12/03 04:11:34;;;;;;;3.75;2.10;;;4.30;99.90;;;;;;4998952;28;20062;-91
2021/12/03 04:14:03;;;;;;;2.67;2.17;;;4.70;99.90;;;;;;4999080;28;20051;-91
2021/12/03 04:16:31;;;;;;;6.00;3.47;;;4.40;99.90;;;;;;5000425;28;20046;-92
2021/12/03 04:18:59;;;;;;;4.53;2.72;;;4.70;99.90;;;;;;5000714;28;20054;-92
2021/12/03 04:21:28;;;;;;;3.90;2.80;;;4.30;99.90;;;;;;4999822;28;20054;-91
2021/12/03 04:23:55;;;;;;;4.80;3.65;;;5.00;99.90;;;;;;4999179;28;20053;-91
2021/12/03 04:30:17;;;;;;;5.70;3.95;;;4.30;99.90;;;;;;4998465;28;20046;-92
2021/12/03 04:33:11;;;;;;;;;;;;;;;;;;;;;
2021/12/03 04:39:16;;;;;;;6.13;4.60;;;2.60;99.90;;;;;;4997858;28;20142;-92
2021/12/03 04:41:43;;;;;;;8.40;5.20;;;4.00;99.90;;;;;;4999700;28;20058;-92
2021/12/03 04:44:10;;;;;;;7.35;5.75;;;4.30;99.90;;;;;;4999123;28;20158;-92
2021/12/03 04:47:15;;;;;;;;;;;;;;;;;;;;;
2021/12/03 04:49:57;;;;;;;6.13;5.47;;;4.60;99.90;;;;;;4999277;28;20042;-91
2021/12/03 04:52:25;;;;;;;7.93;4.90;;;5.20;99.90;;;;;;4999366;28;20050;-93
2021/12/03 04:54:52;;;;;;;9.48;6.20;;;4.50;99.90;;;;;;4998824;28;20130;-92
2021/12/03 04:57:20;;;;;;;8.57;6.75;;;4.40;99.90;;;;;;4999362;28;20378;-93
2021/12/03 04:59:47;;;;;;;8.57;7.05;;;4.10;99.90;;;;;;4998686;28;20081;-93
2021/12/03 05:02:18;;;;;;;8.70;6.55;;;3.80;99.90;;;;;;4998868;28;20062;-92
2021/12/03 05:05:22;;;;;;;9.73;7.72;;;4.40;99.90;;;;;;4998122;28;20054;-91
2021/12/03 05:07:58;;;;;;;8.25;6.75;;;5.70;99.90;;;;;;4999038;28;20467;-91
2021/12/03 05:10:27;;;;;;;11.18;6.57;;;4.40;99.90;;;;;;4999616;28;20050;-92
2021/12/03 05:12:59;;;;;;;9.10;6.88;;;4.10;99.90;;;;;;4998017;28;20567;-92
2021/12/03 05:15:27;;;;;;;8.35;6.35;;;4.60;99.90;;;;;;4998593;28;20050;-92
2021/12/03 05:17:56;;;;;;;9.82;6.20;;;4.40;99.90;;;;;;4981019;28;20138;-91
2021/12/03 05:20:24;;;;;;;8.45;7.35;;;4.00;99.90;;;;;;4978853;28;20493;-91
2021/12/03 05:22:53;;;;;;;8.93;6.57;;;4.50;99.90;;;;;;4982879;28;20085;-92
2021/12/03 05:25:21;;;;;;;8.82;6.47;;;4.50;99.90;;;;;;4998520;28;20133;-92
2021/12/03 05:28:09;;;;;;;12.13;6.68;;;4.20;99.90;;;;;;5015047;23;20137;-92
2021/12/03 05:30:39;;;;;;;8.52;7.38;;;4.40;99.90;;;;;;4998605;28;20054;-92
2021/12/03 05:33:08;;;;;;;11.45;7.68;;;4.30;99.90;;;;;;4998357;28;20052;-92
2021/12/03 05:35:36;;;;;;;10.73;7.65;;;4.80;99.90;;;;;;4998279;28;20065;-91
2021/12/03 05:38:04;;;;;;;10.73;9.02;;;4.50;99.90;;;;;;4997976;28;20046;-89
2021/12/03 05:40:32;;;;;;;12.20;6.78;;;4.30;99.90;;;;;;4996797;28;20046;-89
2021/12/03 05:42:59;;;;;;;10.35;7.03;;;4.50;99.90;;;;;;4979679;28;20047;-90
2021/12/03 05:45:28;;;;;;;10.82;7.60;;;4.60;99.90;;;;;;4979495;28;20069;-90
2021/12/03 05:47:56;;;;;;;12.63;7.38;;;4.40;99.90;;;;;;4991676;28;20046;-90
2021/12/03 05:50:25;;;;;;;10.32;7.75;;;4.40;99.90;;;;;;4997348;28;20046;-90
2021/12/03 05:52:58;;;;;;;12.57;8.55;;;4.30;99.90;;;;;;4998905;28;20057;-89
2021/12/03 05:55:26;;;;;;;10.55;8.02;;;4.40;99.90;;;;;;4998713;28;20061;-90
2021/12/03 05:57:53;;;;;;;12.65;7.82;;;4.40;99.90;;;;;;4997755;28;20046;-90
2021/12/03 06:00:24;;;;;;;12.65;8.88;;;4.50;99.90;;;;;;4995262;28;20042;-90
2021/12/03 06:02:53;;;;;;;11.55;8.95;;;4.60;99.90;;;;;;4976084;28;20066;-90
2021/12/03 06:05:20;;;;;;;12.13;9.67;;;4.50;99.90;;;;;;4975987;28;20082;-90
2021/12/03 06:07:49;;;;;;;13.65;9.68;;;4.50;99.90;;;;;;4976140;28;20113;-89
2021/12/03 06:10:16;;;;;;;17.85;10.80;;;4.50;99.90;;;;;;4978295;28;20046;-89
2021/12/03 06:12:43;;;;;;;11.95;9.40;;;5.00;99.90;;;;;;4995109;28;20046;-89
2021/12/03 06:15:11;;;;;;;13.45;9.93;;;4.60;99.90;;;;;;4994907;28;20563;-89
2021/12/03 06:17:40;;;;;;;14.30;9.63;;;4.50;99.90;;;;;;4994938;28;20101;-89
2021/12/03 06:20:11;;;;;;;13.48;9.63;;;4.70;99.90;;;;;;4996440;28;20042;-89
2021/12/03 06:22:39;;;;;;;16.00;9.98;;;4.50;99.90;;;;;;4995197;28;20047;-88
2021/12/03 06:25:10;;;;;;;13.07;10.13;;;4.50;99.90;;;;;;4995205;28;20560;-88
2021/12/03 06:27:38;;;;;;;18.08;11.02;;;4.50;99.90;;;;;;4994907;28;20090;-88
2021/12/03 06:30:07;;;;;;;17.23;10.70;;;4.60;99.90;;;;;;4995192;28;20500;-88
2021/12/03 06:32:34;;;;;;;;;;;4.60;99.90;;;;;;4995646;28;20077;-88
2021/12/03 06:35:01;;;;;;;15.93;10.80;;;4.60;99.90;;;;;;4974821;28;20372;-88
2021/12/03 06:37:31;;;;;;;19.30;11.93;;;4.60;99.90;;;;;;4994866;28;20511;-88
2021/12/03 06:39:58;;;;;;;18.55;11.52;;;4.60;99.90;;;;;;4995576;28;20184;-88
2021/12/03 06:42:27;;;;;;;21.58;12.38;;;4.60;99.90;;;;;;4994922;28;20055;-88
2021/12/03 06:44:54;;;;;;;21.25;11.52;;;4.70;99.90;;;;;;4995029;28;20105;-89
2021/12/03 06:47:21;;;;;;;18.10;11.77;;;4.70;99.90;;;;;;4995256;28;20054;-89
2021/12/03 06:49:48;;;;;;;17.33;12.80;;;4.70;99.90;;;;;;4994971;28;20050;-88
2021/12/03 06:52:17;;;;;;;21.08;13.02;;;4.70;99.90;;;;;;4994905;28;20457;-88
2021/12/03 06:54:52;;;;;;;25.90;13.23;;;4.70;99.90;;;;;;4994143;28;20051;-91
2021/12/03 06:57:19;;;;;;;21.70;12.40;;;4.80;99.90;;;;;;4998780;28;20046;-88
2021/12/03 06:59:47;;;;;;;19.05;13.32;;;4.80;99.90;;;;;;4998155;28;20062;-88
2021/12/03 07:02:14;;;;;;;20.77;12.63;;;5.10;99.90;;;;;;4999276;28;20050;-88
2021/12/03 07:04:43;;;;;;;24.77;13.35;;;4.80;99.90;;;;;;4999136;28;20057;-88
2021/12/03 07:07:11;;;;;;;20.75;12.93;;;4.80;99.90;;;;;;4998212;28;20046;-88
2021/12/03 07:09:41;;;;;;;21.50;13.30;;;4.80;99.90;;;;;;4998365;28;20049;-88
2021/12/03 07:12:10;;;;;;;21.13;12.95;;;5.00;99.90;;;;;;4998493;28;20560;-88
2021/12/03 07:14:37;;;;;;;19.55;13.80;;;3.50;99.90;;;;;;4997798;28;20047;-88
2021/12/03 07:17:06;;;;;;;25.92;14.45;;;4.90;99.90;;;;;;4997814;28;20520;-89
2021/12/03 07:19:34;;;;;;;22.45;14.32;;;5.00;99.90;;;;;;4998690;28;20050;-89
2021/12/03 07:22:11;;;;;;;21.52;14.55;;;5.00;99.90;;;;;;4998334;28;20480;-92
2021/12/03 07:24:38;;;;;;;23.90;15.35;;;5.00;99.90;;;;;;4999393;28;20057;-92
2021/12/03 07:27:06;;;;;;;27.40;15.02;;;5.00;99.90;;;;;;5000366;28;20053;-91
2021/12/03 07:29:38;;;;;;;25.15;15.77;;;5.10;99.90;;;;;;5086319;23;20042;-92
2021/12/03 07:32:17;;;;;;;29.88;15.18;;;5.30;99.90;;;;;;5015791;28;20461;-92
2021/12/03 07:34:48;;;;;;;27.27;15.85;;;4.40;99.90;;;;;;5019009;28;20463;-92
2021/12/03 07:37:16;;;;;;;27.33;16.00;;;5.20;99.90;;;;;;5019280;28;20076;-92
2021/12/03 07:39:47;;;;;;;30.08;16.80;;;5.20;99.90;;;;;;5019278;28;20140;-92
2021/12/03 07:42:15;;;;;;;31.70;16.38;;;5.30;99.90;;;;;;5019964;28;20046;-92
2021/12/03 07:44:49;;;;;;;38.97;18.00;;;5.30;99.90;;;;;;5019400;28;20057;-92
2021/12/03 07:47:23;;;;;;;34.28;19.73;;;5.70;99.90;;;;;;5003192;28;20050;-92
2021/12/03 07:49:51;;;;;;;33.58;17.67;;;5.50;99.90;;;;;;4998734;28;20050;-93
2021/12/03 07:52:21;;;;;;;34.35;16.27;;;5.50;99.90;;;;;;4999727;28;20077;-92
2021/12/03 07:54:49;;;;;;;32.63;17.30;;;5.60;99.90;;;;;;5001285;28;20358;-91
2021/12/03 07:57:49;;;;;;;31.98;18.08;;;5.60;99.90;;;;;;5000683;28;20060;-92
2021/12/03 08:00:22;;;;;;;32.83;18.08;;;7.00;99.90;;;;;;4999971;28;20100;-90
2021/12/03 08:03:34;;;;;;;35.03;17.83;;;5.60;99.90;;;;;;5006858;28;20047;-91
2021/12/03 08:06:09;;;;;;;34.35;18.73;;;5.80;99.90;;;;;;5014221;28;20107;-93
2021/12/03 08:08:41;;;;;;;45.58;21.48;;;6.00;99.90;;;;;;5015614;28;20049;-91
2021/12/03 08:11:11;;;;;;;40.50;21.58;;;6.00;99.90;;;;;;5000708;28;20408;-93
2021/12/03 08:13:40;;;;;;;42.50;21.08;;;5.90;99.90;;;;;;5005215;28;20481;-92
2021/12/03 08:16:40;;;;;;;33.42;19.77;;;6.00;99.90;;;;;;5016462;28;20501;-93
2021/12/03 08:19:15;;;;;;;39.13;19.17;;;5.90;99.90;;;;;;5000145;28;20056;-92
2021/12/03 08:21:51;;;;;;;38.92;18.98;;;6.00;99.90;;;;;;5002665;28;20046;-91
2021/12/03 08:24:21;;;;;;;34.42;15.85;;;6.10;99.90;;;;;;5004023;28;20061;-91
2021/12/03 08:27:00;;;;;;;45.92;19.48;;;6.20;99.90;;;;;;5004645;28;20052;-92
2021/12/03 08:29:28;;;;;;;;;;;6.20;99.90;;;;;;5002119;28;20072;-91
2021/12/03 08:31:55;;;;;;;36.22;18.13;;;6.10;99.90;;;;;;5002174;28;19928;-93
2021/12/03 08:34:23;;;;;;;33.72;18.20;;;6.20;99.90;;;;;;5001432;28;20093;-92
2021/12/03 08:36:55;;;;;;;37.42;19.90;;;6.30;99.90;;;;;;5006309;28;20041;-92
2021/12/03 08:42:23;;;;;;;43.80;20.20;;;7.10;99.90;;;;;;5000981;28;20050;-94
2021/12/03 08:44:52;;;;;;;35.90;19.23;;;7.00;99.90;;;;;;5003197;28;20050;-91
2021/12/03 08:47:19;;;;;;;42.60;20.38;;;6.60;99.90;;;;;;5000017;28;20496;-91
2021/12/03 08:49:50;;;;;;;37.83;19.90;;;6.70;99.90;;;;;;5002272;28;20064;-90
2021/12/03 08:55:08;;;;;;;38.58;18.92;;;6.70;99.90;;;;;;4979895;28;20054;-88
2021/12/03 08:58:10;;;;;;;33.38;17.77;;;6.50;99.90;;;;;;4998495;28;20114;-89
2021/12/03 09:00:38;;;;;;;30.33;16.52;;;7.90;99.90;;;;;;4994484;28;20117;-88
2021/12/03 09:03:06;;;;;;;43.67;16.00;;;8.40;99.90;;;;;;4988485;28;20096;-89
2021/12/03 09:05:42;;;;;;;27.65;12.38;;;6.80;99.90;;;;;;4987805;28;20386;-92
2021/12/03 09:08:13;;;;;;;34.80;13.02;;;6.70;99.90;;;;;;5000676;28;20054;-92
2021/12/03 09:16:10;;;;;;;25.45;8.10;;;6.80;99.90;;;;;;4933442;28;20152;-91
2021/12/03 09:18:40;;;;;;;26.48;9.45;;;7.20;99.90;;;;;;4924109;28;20141;-90
2021/12/03 09:21:12;;;;;;;34.15;12.25;;;7.20;99.90;;;;;;4925607;28;20141;-88
2021/12/03 09:27:01;;;;;;;24.83;6.13;;;7.10;99.90;;;;;;4913590;28;20054;-91
2021/12/03 09:29:31;;;;;;;34.38;6.82;;;7.10;99.90;;;;;;4990425;28;20092;-90
2021/12/03 09:32:09;;;;;;;22.70;5.75;;;7.50;99.90;;;;;;4996650;28;20137;-91
2021/12/03 09:37:25;;;;;;;27.48;5.95;;;7.40;99.90;;;;;;4977320;28;20049;-87
2021/12/03 09:40:01;;;;;;;26.48;4.93;;;7.50;99.90;;;;;;4940999;28;20046;-91
2021/12/03 09:42:41;;;;;;;31.73;5.72;;;7.60;99.90;;;;;;4938199;28;20077;-90
2021/12/03 09:45:19;;;;;;;32.83;4.88;;;5.90;99.90;;;;;;4923442;28;20453;-89
2021/12/03 09:47:53;;;;;;;24.58;5.38;;;8.00;99.90;;;;;;4970991;28;20048;-91
2021/12/03 09:50:29;;;;;;;28.75;5.32;;;7.70;99.90;;;;;;4992412;28;20047;-89
2021/12/03 09:53:11;;;;;;;23.23;3.90;;;7.70;99.90;;;;;;4979675;28;20046;-89
2021/12/03 09:55:57;;;;;;;32.97;4.93;;;7.80;99.90;;;;;;4991009;28;20083;-91
2021/12/03 09:59:00;;;;;;;24.33;4.85;;;7.70;99.90;;;;;;4993516;28;20438;-91
2021/12/03 10:01:45;;;;;;;25.38;4.35;;;8.10;99.90;;;;;;5002673;28;20046;-90
2021/12/03 10:12:49;;;;;;;20.98;3.92;;;8.40;99.90;;;;;;4990867;28;20682;-90
2021/12/03 10:15:39;;;;;;;;;;;;;;;;;;;;;
2021/12/03 10:18:09;;;;;;;23.42;4.28;;;7.10;99.90;;;;;;4995412;28;20414;-91
2021/12/03 10:20:49;;;;;;;28.48;3.67;;;8.50;99.90;;;;;;4991437;28;20057;-91
2021/12/03 10:40:21;;;;;;;27.75;4.50;;;9.20;99.90;;;;;;4993764;28;20049;-91
2021/12/03 10:43:11;;;;;;;25.98;5.07;;;9.40;99.90;;;;;;4998645;28;20050;-91
2021/12/03 10:45:47;;;;;;;30.67;4.82;;;9.30;99.90;;;;;;4993709;28;20042;-92
2021/12/03 10:48:32;;;;;;;26.55;4.80;;;9.20;99.90;;;;;;4989505;28;20057;-92
2021/12/03 10:51:19;;;;;;;24.05;3.47;;;9.20;99.90;;;;;;4987958;28;20050;-92
2021/12/03 10:53:56;;;;;;;26.08;4.90;;;9.30;99.90;;;;;;4989966;28;20047;-89
2021/12/03 10:56:44;;;;;;;28.73;4.43;;;9.20;99.90;;;;;;4984808;28;20114;-91
2021/12/03 11:08:37;;;;;;;22.10;4.53;;;9.20;99.90;;;;;;4970186;28;20122;-90
2021/12/03 11:40:26;;;;;;;18.05;5.93;;;10.40;99.90;;;;;;4991891;28;20520;-91
2021/12/03 13:12:44;;;;;;;25.83;4.75;;;9.50;99.90;;;;;;4859160;29;20045;-90
2021/12/03 14:38:32;;;;;;;17.67;3.30;;;9.20;99.90;;;;;;5031427;28;20376;-90
2021/12/03 14:41:30;;;;;;;23.95;3.95;;;9.10;99.90;;;;;;5087517;28;20044;-88
2021/12/03 14:44:10;;;;;;;15.23;3.22;;;9.30;99.90;;;;;;5086530;28;20044;-88
2021/12/03 14:46:58;;;;;;;19.10;4.22;;;9.30;99.90;;;;;;5087125;28;20051;-89
2021/12/03 14:52:29;;;;;;;23.88;9.27;;;9.10;99.90;;;;;;5082761;28;20066;-90
2021/12/03 14:55:00;;;;;;;54.80;13.05;;;9.00;99.90;;;;;;5085288;28;20051;-89
2021/12/03 14:57:40;;;;;;;37.85;11.32;;;8.40;99.90;;;;;;5085483;28;20089;-89
2021/12/03 15:00:27;;;;;;;31.08;12.25;;;9.10;99.90;;;;;;5083979;28;20068;-90
2021/12/03 15:05:58;;;;;;;26.67;6.45;;;9.00;99.90;;;;;;5090715;28;20054;-89
2021/12/03 15:08:31;;;;;;;26.05;5.20;;;8.90;99.90;;;;;;5087977;28;20047;-88
2021/12/03 15:11:40;;;;;;;33.75;7.28;;;9.00;99.90;;;;;;5089280;28;20049;-89
2021/12/03 15:31:42;;;;;;;19.55;4.80;;;8.90;99.90;;;;;;5093079;28;20059;-93
2021/12/03 15:34:35;;;;;;;27.38;5.00;;;9.00;99.90;;;;;;5094894;28;20127;-91
2021/12/03 15:40:13;;;;;;;24.92;4.00;;;8.70;99.90;;;;;;5014084;28;20102;-93
2021/12/03 16:07:16;;;;;;;20.55;5.35;;;8.70;99.90;;;;;;5020408;28;20749;-91
2021/12/03 16:12:57;;;;;;;28.88;6.03;;;8.50;99.90;;;;;;4946278;28;20239;-89
2021/12/03 16:19:06;;;;;;;31.10;6.20;;;8.70;99.90;;;;;;4928967;28;20089;-91
2021/12/03 16:22:11;;;;;;;38.40;8.00;;;8.70;99.90;;;;;;4933697;28;20042;-91
2021/12/03 16:45:51;;;;;;;18.95;4.30;;;8.40;99.90;;;;;;5033387;28;20059;-92
2021/12/03 16:51:52;;;;;;;22.20;5.70;;;8.60;99.90;;;;;;5085714;22;20563;-91
2021/12/03 16:54:25;;;;;;;23.02;7.32;;;8.60;99.90;;;;;;5048683;28;20057;-90
2021/12/03 16:56:56;;;;;;;30.52;6.50;;;8.30;99.90;;;;;;5053543;28;20068;-91
2021/12/03 16:59:25;;;;;;;20.55;6.30;;;8.50;99.90;;;;;;5051201;28;20537;-89
2021/12/03 17:02:04;;;;;;;19.48;6.03;;;10.10;99.90;;;;;;5051907;28;20052;-91
2021/12/03 17:16:36;;;;;;;38.50;13.65;;;7.40;99.90;;;;;;5062811;28;20064;-92
2021/12/03 17:25:28;;;;;;;33.63;9.82;;;8.20;99.90;;;;;;5034867;28;20041;-91
2021/12/03 17:56:30;;;;;;;35.65;12.05;;;8.10;99.90;;;;;;5095288;28;20047;-90
2021/12/03 17:59:08;;;;;;;30.48;9.98;;;8.00;99.90;;;;;;5096441;28;20056;-89
2021/12/03 18:01:47;;;;;;;29.60;10.60;;;8.10;99.90;;;;;;5095594;28;20044;-89
2021/12/03 18:04:22;;;;;;;33.67;11.02;;;8.10;99.90;;;;;;5093894;28;20078;-90
2021/12/03 18:07:20;;;;;;;27.42;10.68;;;7.90;99.90;;;;;;5096447;28;20567;-90
2021/12/03 18:51:51;;;;;;;45.10;23.98;;;7.60;99.90;;;;;;5098767;28;20047;-90
2021/12/03 18:54:37;;;;;;;36.80;17.20;;;7.50;99.90;;;;;;5086884;28;20052;-90
2021/12/03 18:57:09;;;;;;;37.47;15.40;;;7.50;99.90;;;;;;5090970;28;20394;-90
2021/12/03 18:59:40;;;;;;;39.13;18.05;;;7.60;99.90;;;;;;5098082;28;20121;-90
2021/12/03 19:02:09;;;;;;;44.38;20.45;;;7.60;99.90;;;;;;5098529;28;20493;-90
2021/12/03 19:04:49;;;;;;;39.40;18.02;;;7.50;99.90;;;;;;5098082;28;20079;-92
2021/12/03 19:07:19;;;;;;;41.92;20.33;;;8.80;99.90;;;;;;5098254;28;20044;-89
2021/12/03 19:09:50;;;;;;;38.85;16.30;;;7.30;99.90;;;;;;5096688;28;20048;-91
2021/12/03 19:12:21;;;;;;;36.13;14.32;;;7.20;99.90;;;;;;5097669;28;20052;-89
2021/12/03 19:14:53;;;;;;;35.58;14.20;;;7.20;99.90;;;;;;5097695;28;20048;-90
2021/12/03 19:17:22;;;;;;;41.30;17.27;;;7.20;99.90;;;;;;5098293;28;20138;-89
2021/12/03 19:19:53;;;;;;;42.80;18.38;;;7.20;99.90;;;;;;5097536;28;20466;-90
2021/12/03 19:22:30;;;;;;;36.92;15.52;;;7.20;99.90;;;;;;5097538;28;20048;-90
2021/12/03 19:24:59;;;;;;;34.53;14.02;;;7.30;99.90;;;;;;5097216;28;20076;-90
2021/12/03 19:27:34;;;;;;;34.85;13.55;;;7.30;99.90;;;;;;5097733;28;20047;-90
2021/12/03 19:30:04;;;;;;;36.38;12.65;;;7.30;99.90;;;;;;5097316;28;20050;-90
2021/12/03 19:32:33;;;;;;;35.35;12.18;;;6.00;99.90;;;;;;5097612;28;20105;-91
2021/12/03 19:35:01;;;;;;;25.98;10.27;;;7.10;99.90;;;;;;5097758;28;20555;-90
2021/12/03 19:37:29;;;;;;;33.67;11.90;;;7.00;99.90;;;;;;5097346;28;20085;-90
2021/12/03 19:39:57;;;;;;;38.72;12.85;;;7.00;99.90;;;;;;5098213;28;20040;-90
2021/12/03 19:42:28;;;;;;;34.90;11.65;;;7.10;99.90;;;;;;5097154;28;20502;-91
2021/12/03 19:45:02;;;;;;;27.83;12.65;;;7.90;99.90;;;;;;5097295;28;20074;-91
2021/12/03 19:47:31;;;;;;;32.63;14.73;;;8.40;99.90;;;;;;5097399;28;20071;-90
2021/12/03 19:50:10;;;;;;;32.60;13.35;;;6.80;99.90;;;;;;5096886;28;20055;-90
2021/12/03 19:52:41;;;;;;;29.35;13.38;;;6.90;99.90;;;;;;5096302;28;20051;-90
2021/12/03 19:55:11;;;;;;;34.40;14.45;;;6.80;99.90;;;;;;5096168;28;20512;-90
2021/12/03 19:57:38;;;;;;;36.72;17.08;;;6.90;99.90;;;;;;5096868;28;20113;-89
2021/12/03 20:00:07;;;;;;;30.67;14.70;;;6.90;99.90;;;;;;5098405;28;20044;-90
2021/12/03 20:02:43;;;;;;;36.92;15.77;;;6.90;99.90;;;;;;5095965;28;20051;-90
2021/12/03 20:05:12;;;;;;;42.58;17.25;;;6.90;99.90;;;;;;5096920;28;20554;-90
2021/12/03 20:07:41;;;;;;;38.58;15.48;;;6.90;99.90;;;;;;5097150;28;20052;-91
2021/12/03 20:10:55;;;;;;;35.13;13.80;;;6.70;99.90;;;;;;5096863;28;20113;-91
2021/12/03 20:13:25;;;;;;;36.10;15.13;;;6.70;99.90;;;;;;5097538;28;20068;-91
2021/12/03 20:16:11;;;;;;;32.72;14.40;;;6.70;99.90;;;;;;5096946;28;20102;-91
2021/12/03 20:18:49;;;;;;;38.42;17.92;;;6.60;99.90;;;;;;5097098;28;20040;-90
2021/12/03 20:21:19;;;;;;;47.28;18.98;;;6.10;99.90;;;;;;5097361;28;20048;-90
2021/12/03 20:26:57;;;;;;;37.88;20.77;;;6.70;99.90;;;;;;5087900;28;20048;-90
2021/12/03 20:29:38;;;;;;;40.33;18.90;;;6.80;99.90;;;;;;5096940;28;20130;-89
2021/12/03 20:32:15;;;;;;;46.20;19.92;;;6.80;99.90;;;;;;5096366;28;20048;-90
2021/12/03 20:34:57;;;;;;;47.33;20.17;;;6.70;99.90;;;;;;5096954;28;20102;-91
2021/12/03 20:37:30;;;;;;;41.03;18.13;;;6.70;99.90;;;;;;5096904;28;20071;-90
2021/12/03 20:40:02;;;;;;;34.03;19.50;;;6.70;99.90;;;;;;5097320;28;20139;-89
2021/12/03 20:42:46;;;;;;;40.35;17.90;;;6.60;99.90;;;;;;5097304;28;20478;-90